createdAt,value
2023-07-04T00:06:03.485Z,13.4
2023-07-04T00:16:03.630Z,13.5
2023-07-04T00:26:03.824Z,13.5
2023-07-04T00:36:04.057Z,13.5
2023-07-04T00:46:04.249Z,13.6
2023-07-04T00:56:04.449Z,13.6
2023-07-04T01:06:04.665Z,13.6
2023-07-04T01:16:04.841Z,13.3
2023-07-04T01:26:05.048Z,13.1
2023-07-04T01:36:05.213Z,13
2023-07-04T01:46:05.460Z,12.9
2023-07-04T01:56:05.620Z,12.9
2023-07-04T02:06:05.819Z,13
2023-07-04T02:16:06.047Z,13
2023-07-04T02:26:06.209Z,13
2023-07-04T02:36:06.451Z,12.9
2023-07-04T02:46:06.649Z,12.9
2023-07-04T02:56:06.796Z,12.6
2023-07-04T03:06:07.004Z,12.5
2023-07-04T03:16:07.274Z,12.5
2023-07-04T03:26:07.394Z,12.8
2023-07-04T03:36:07.589Z,12.9
2023-07-04T03:46:07.785Z,13.4
2023-07-04T04:56:09.178Z,13.1
2023-07-04T05:46:10.192Z,14.7
2023-07-04T06:36:11.149Z,16.1
2023-07-04T06:56:11.565Z,16.6
2023-07-04T07:06:11.742Z,16.8
2023-07-04T07:36:12.317Z,17.3
2023-07-04T07:46:12.524Z,17.5
2023-07-04T08:06:12.919Z,17.7
2023-07-04T08:16:13.105Z,18
2023-07-04T08:26:13.296Z,17.8
2023-07-04T08:36:13.484Z,18.2
2023-07-04T08:46:13.735Z,18.2
2023-07-04T08:56:13.901Z,18.5
2023-07-04T09:06:14.107Z,19
2023-07-04T09:16:14.287Z,19.7
2023-07-04T09:26:14.512Z,19.8
2023-07-04T09:36:14.669Z,19.4
2023-07-04T09:56:15.041Z,19.5
2023-07-04T11:46:17.206Z,21.1
2023-07-04T12:16:17.772Z,20.6
2023-07-04T15:26:26.774Z,21.9
2023-07-04T15:36:21.652Z,21.8
2023-07-04T15:46:22.204Z,22.1
2023-07-04T15:56:22.056Z,21.7
2023-07-04T16:16:22.460Z,21.4
2023-07-04T16:26:24.054Z,21.4
2023-07-04T16:36:22.814Z,21.4
2023-07-04T16:46:23.023Z,21.3
2023-07-04T16:56:24.873Z,21.3
2023-07-04T17:06:23.432Z,21.3
2023-07-04T17:16:23.612Z,21.3
2023-07-04T17:36:23.959Z,21.2
2023-07-04T17:56:24.410Z,21
2023-07-04T18:06:24.554Z,20.9
2023-07-04T18:16:24.794Z,20.7
2023-07-04T18:36:25.150Z,20.3
2023-07-04T18:46:25.339Z,20.3
2023-07-04T18:56:25.528Z,20
2023-07-04T19:06:25.727Z,19.9
2023-07-04T19:16:25.940Z,19.8
2023-07-04T19:26:26.117Z,19.6
2023-07-04T19:36:26.306Z,19.4
2023-07-04T20:06:27.050Z,18.3
2023-07-04T20:16:27.254Z,17.6
2023-07-04T20:26:27.729Z,17.3
2023-07-04T20:36:27.627Z,16.9
2023-07-04T20:46:27.727Z,16.7
2023-07-04T21:06:28.055Z,16.3
2023-07-04T21:16:28.286Z,16.3
2023-07-04T21:26:28.463Z,16.3
2023-07-04T21:36:28.644Z,16.3
2023-07-04T21:46:28.856Z,16
2023-07-04T22:16:29.437Z,16
2023-07-04T22:26:29.626Z,16
2023-07-04T22:46:30.273Z,16
2023-07-04T23:46:31.239Z,16.1
